createdAt,value
2023-11-01T00:00:40.171Z,2.35
2023-11-01T00:05:42.183Z,1.85
2023-11-01T00:10:43.895Z,2.53
2023-11-01T00:15:45.615Z,1.77
2023-11-01T00:20:47.383Z,2.63
2023-11-01T00:25:49.142Z,4.57
2023-11-01T00:30:50.808Z,2.63
2023-11-01T00:35:52.537Z,2.15
2023-11-01T00:40:54.243Z,3.35
2023-11-01T00:45:55.980Z,2.15
2023-11-01T00:50:57.646Z,3.15
2023-11-01T00:55:59.380Z,3.38
2023-11-01T01:01:01.581Z,3.05
2023-11-01T01:06:04.334Z,2.78
2023-11-01T01:11:06.167Z,2.90
2023-11-01T01:16:08.373Z,4.03
2023-11-01T01:21:10.109Z,1.35
2023-11-01T01:26:11.862Z,1.88
2023-11-01T01:31:13.690Z,2.15
2023-11-01T01:36:15.409Z,2.35
2023-11-01T01:41:17.260Z,1.55
2023-11-01T01:46:19.361Z,2.00
2023-11-01T01:51:22.637Z,3.38
2023-11-01T01:56:25.773Z,3.72
2023-11-01T02:01:39.162Z,3.70
2023-11-01T02:06:46.430Z,1.90
2023-11-01T02:11:48.147Z,3.58
2023-11-01T02:16:51.228Z,1.92
2023-11-01T02:21:52.956Z,1.90
2023-11-01T02:26:54.644Z,2.10
2023-11-01T02:31:56.297Z,2.28
2023-11-01T02:36:57.979Z,3.00
2023-11-01T02:42:00.548Z,1.63
2023-11-01T02:47:02.540Z,2.28
2023-11-01T02:52:04.470Z,2.03
2023-11-01T02:57:06.542Z,1.85
2023-11-01T03:02:08.277Z,3.35
2023-11-01T03:07:09.945Z,1.98
2023-11-01T03:12:11.664Z,1.98
2023-11-01T03:17:13.590Z,1.40
2023-11-01T03:22:15.394Z,1.58
2023-11-01T03:27:17.028Z,1.10
2023-11-01T03:32:19.045Z,1.95
2023-11-01T03:37:20.768Z,2.22
2023-11-01T03:42:23.101Z,1.42
2023-11-01T03:47:25.103Z,2.72
2023-11-01T03:52:27.691Z,1.38
2023-11-01T03:57:29.388Z,2.20
2023-11-01T04:02:31.349Z,3.50
2023-11-01T04:07:33.068Z,1.40
2023-11-01T04:12:34.710Z,5.10
2023-11-01T04:17:36.402Z,1.20
2023-11-01T04:22:38.854Z,1.52
2023-11-01T04:27:43.378Z,2.35
2023-11-01T04:32:45.125Z,2.35
2023-11-01T04:37:46.984Z,1.70
2023-11-01T04:42:49.229Z,1.42
2023-11-01T04:47:51.038Z,3.33
2023-11-01T04:52:53.164Z,2.65
2023-11-01T04:57:54.814Z,1.20
2023-11-01T05:02:56.620Z,2.45
2023-11-01T05:07:58.354Z,2.50
2023-11-01T05:13:00.101Z,2.63
2023-11-01T05:18:01.957Z,2.33
2023-11-01T05:23:03.777Z,1.70
2023-11-01T05:28:05.542Z,2.35
2023-11-01T05:33:07.386Z,2.58
2023-11-01T05:38:09.090Z,1.90
2023-11-01T05:43:10.724Z,1.73
2023-11-01T05:48:12.506Z,0.82
2023-11-01T05:53:14.174Z,1.77
2023-11-01T05:58:15.876Z,4.55
2023-11-01T06:03:17.747Z,1.65
2023-11-01T06:08:19.659Z,1.98
2023-11-01T06:13:22.020Z,1.48
2023-11-01T06:18:23.796Z,2.85
2023-11-01T06:23:26.110Z,2.05
2023-11-01T06:28:27.964Z,2.13
2023-11-01T06:33:29.711Z,1.20
2023-11-01T06:38:31.477Z,1.42
2023-11-01T06:43:33.236Z,1.30
2023-11-01T06:48:35.013Z,2.17
2023-11-01T06:53:36.740Z,2.33
2023-11-01T06:58:38.457Z,3.60
2023-11-01T07:03:40.306Z,3.33
2023-11-01T07:08:44.156Z,4.18
2023-11-01T07:13:46.261Z,2.63
2023-11-01T07:18:47.907Z,1.90
2023-11-01T07:23:49.761Z,4.05
2023-11-01T07:28:51.508Z,1.88
2023-11-01T07:33:53.264Z,3.15
2023-11-01T07:38:55.192Z,2.40
2023-11-01T07:43:56.975Z,4.28
2023-11-01T07:48:58.633Z,2.30
2023-11-01T07:54:00.372Z,4.00
2023-11-01T07:59:02.241Z,1.52
2023-11-01T08:04:04.596Z,2.03
2023-11-01T08:09:06.801Z,1.80
2023-11-01T08:14:09.054Z,2.55
2023-11-01T08:19:11.105Z,2.00
2023-11-01T08:24:12.926Z,2.15
2023-11-01T08:29:14.698Z,3.75
2023-11-01T08:34:16.362Z,3.00
2023-11-01T08:39:18.560Z,1.58
2023-11-01T08:44:20.395Z,4.45
2023-11-01T08:49:22.163Z,2.95
2023-11-01T08:54:26.037Z,1.58
2023-11-01T08:59:27.688Z,4.55
2023-11-01T09:04:29.667Z,4.57
2023-11-01T09:09:31.437Z,4.30
2023-11-01T09:14:33.180Z,3.03
2023-11-01T09:19:35.159Z,3.90
2023-11-01T09:24:36.928Z,1.70
2023-11-01T09:29:38.745Z,1.05
2023-11-01T09:34:41.289Z,1.70
2023-11-01T09:39:43.064Z,1.85
2023-11-01T09:44:47.154Z,1.10
2023-11-01T09:49:49.695Z,1.83
2023-11-01T09:54:51.520Z,1.42
2023-11-01T09:59:54.237Z,2.20
2023-11-01T10:04:56.756Z,1.08
2023-11-01T10:09:58.660Z,1.20
2023-11-01T10:15:02.733Z,1.08
2023-11-01T10:20:04.872Z,2.72
2023-11-01T10:25:08.134Z,0.70
2023-11-01T10:30:10.470Z,1.13
2023-11-01T10:35:15.699Z,2.70
2023-11-01T10:40:17.568Z,1.83
2023-11-01T10:45:19.682Z,0.95
2023-11-01T10:50:21.924Z,1.30
2023-11-01T10:55:25.431Z,1.20
2023-11-01T11:00:34.129Z,2.30
2023-11-01T11:05:41.255Z,1.45
2023-11-01T11:10:44.477Z,1.00
2023-11-01T11:15:49.463Z,0.60
2023-11-01T11:20:56.587Z,2.33
2023-11-01T11:26:00.153Z,3.80
2023-11-01T11:31:30.765Z,2.00
2023-11-01T11:36:32.495Z,3.53
2023-11-01T11:41:37.161Z,3.38
2023-11-01T11:46:50.382Z,1.90
2023-11-01T11:52:04.217Z,2.03
2023-11-01T11:57:12.437Z,1.05
2023-11-01T12:02:17.640Z,2.10
2023-11-01T12:07:19.952Z,0.60
2023-11-01T12:12:22.615Z,1.48
2023-11-01T12:17:24.456Z,1.73
2023-11-01T12:22:26.439Z,1.38
2023-11-01T12:27:32.541Z,2.65
2023-11-01T12:32:39.785Z,2.28
2023-11-01T12:37:43.324Z,2.65
2023-11-01T12:42:52.521Z,1.63
2023-11-01T12:47:54.953Z,1.60
2023-11-01T12:52:57.177Z,2.03
2023-11-01T12:58:03.771Z,3.28
2023-11-01T13:03:05.768Z,2.95
2023-11-01T13:08:07.695Z,4.60
2023-11-01T13:13:09.353Z,2.95
2023-11-01T13:18:11.129Z,2.20
2023-11-01T13:23:13.017Z,1.92
2023-11-01T13:28:14.760Z,4.60
2023-11-01T13:33:16.575Z,3.03
2023-11-01T13:38:18.630Z,2.70
2023-11-01T13:43:20.977Z,4.05
2023-11-01T13:48:23.751Z,3.25
2023-11-01T13:53:25.707Z,2.28
2023-11-01T13:58:28.025Z,2.80
2023-11-01T14:03:30.148Z,2.65
2023-11-01T14:08:31.993Z,3.72
2023-11-01T14:13:33.725Z,2.50
2023-11-01T14:18:35.763Z,3.58
2023-11-01T14:23:40.866Z,3.33
2023-11-01T14:28:42.744Z,2.83
2023-11-01T14:33:44.749Z,4.50
2023-11-01T14:38:46.550Z,1.70
2023-11-01T14:43:48.320Z,2.38
2023-11-01T14:48:50.845Z,1.92
2023-11-01T14:53:52.552Z,3.85
2023-11-01T14:58:55.417Z,3.42
2023-11-01T15:03:57.162Z,4.40
2023-11-01T15:08:58.979Z,3.67
2023-11-01T15:14:01.308Z,2.47
2023-11-01T15:19:03.013Z,4.32
2023-11-01T15:24:06.143Z,3.97
2023-11-01T15:29:08.048Z,4.22
2023-11-01T15:34:09.891Z,4.72
2023-11-01T15:39:13.678Z,5.28
2023-11-01T15:44:15.485Z,6.32
2023-11-01T15:49:17.340Z,5.70
2023-11-01T15:54:19.316Z,9.27
2023-11-01T15:59:21.018Z,3.95
2023-11-01T16:04:23.145Z,6.07
2023-11-01T16:09:25.046Z,4.75
2023-11-01T16:14:28.230Z,3.83
2023-11-01T16:19:30.065Z,3.88
2023-11-01T16:24:31.936Z,5.40
2023-11-01T16:29:33.638Z,5.57
2023-11-01T16:34:35.451Z,4.38
2023-11-01T16:39:37.773Z,11.82
2023-11-01T16:44:48.138Z,4.32
2023-11-01T16:49:50.437Z,4.97
2023-11-01T16:54:56.450Z,5.03
2023-11-01T16:59:58.291Z,4.57
2023-11-01T17:05:00.175Z,4.22
2023-11-01T17:10:01.924Z,6.78
2023-11-01T17:15:05.391Z,4.57
2023-11-01T17:20:08.800Z,7.30
2023-11-01T17:25:32.486Z,4.32
2023-11-01T17:30:37.483Z,4.20
2023-11-01T17:35:41.587Z,5.65
2023-11-01T17:40:45.465Z,5.63
2023-11-01T17:45:48.118Z,5.60
2023-11-01T17:50:50.671Z,3.88
2023-11-01T17:55:52.442Z,3.90
2023-11-01T18:00:54.307Z,6.85
2023-11-01T18:05:56.258Z,6.05
2023-11-01T18:10:59.033Z,6.15
2023-11-01T18:16:06.010Z,6.13
2023-11-01T18:21:26.303Z,7.32
2023-11-01T18:26:29.553Z,5.82
2023-11-01T18:31:32.069Z,5.75
2023-11-01T18:36:44.929Z,10.35
2023-11-01T18:41:47.234Z,6.20
2023-11-01T18:46:48.962Z,7.35
2023-11-01T18:51:57.708Z,4.22
2023-11-01T18:56:59.415Z,8.20
2023-11-01T19:02:01.858Z,7.70
2023-11-01T19:07:05.729Z,7.63
2023-11-01T19:12:07.681Z,6.15
2023-11-01T19:17:09.558Z,8.93
2023-11-01T19:22:11.370Z,7.97
2023-11-01T19:27:18.418Z,10.50
2023-11-01T19:37:27.862Z,5.22
2023-11-01T19:42:33.599Z,8.05
2023-11-01T19:47:37.500Z,5.88
2023-11-01T19:52:39.543Z,9.55
2023-11-01T19:57:41.250Z,3.63
2023-11-01T20:02:43.511Z,7.90
2023-11-01T20:07:45.402Z,6.55
2023-11-01T20:12:47.505Z,8.88
2023-11-01T20:17:49.568Z,7.45
2023-11-01T20:22:52.485Z,6.85
2023-11-01T20:27:54.457Z,6.55
2023-11-01T20:32:56.395Z,5.80
2023-11-01T20:37:58.207Z,5.50
2023-11-01T20:42:59.971Z,5.70
2023-11-01T20:48:01.971Z,4.38
2023-11-01T20:53:03.777Z,4.97
2023-11-01T20:58:07.244Z,8.45
2023-11-01T21:03:09.119Z,6.95
2023-11-01T21:08:10.863Z,6.47
2023-11-01T21:13:12.569Z,6.90
2023-11-01T21:18:14.427Z,4.03
2023-11-01T21:23:16.398Z,5.13
2023-11-01T21:28:18.199Z,4.72
2023-11-01T21:33:22.648Z,4.78
2023-11-01T21:38:25.222Z,4.78
2023-11-01T21:43:27.279Z,6.78
2023-11-01T21:48:30.713Z,4.18
2023-11-01T21:53:35.038Z,5.63
2023-11-01T21:58:37.155Z,5.25
2023-11-01T22:03:50.279Z,7.32
2023-11-01T22:08:55.155Z,7.43
2023-11-01T22:13:58.907Z,5.50
2023-11-01T22:19:02.541Z,4.10
2023-11-01T22:24:08.249Z,4.82
2023-11-01T22:29:12.754Z,6.20
2023-11-01T22:34:14.606Z,4.32
2023-11-01T22:39:33.161Z,5.13
2023-11-01T22:44:34.901Z,4.90
2023-11-01T22:49:36.992Z,5.00
2023-11-01T22:54:39.595Z,3.50
2023-11-01T22:59:44.727Z,3.40
2023-11-01T23:04:46.414Z,8.70
2023-11-01T23:09:48.572Z,6.78
2023-11-01T23:14:50.392Z,7.18
2023-11-01T23:19:52.335Z,6.35
2023-11-01T23:24:54.006Z,4.90
2023-11-01T23:29:55.730Z,9.65
2023-11-01T23:34:58.343Z,4.03
2023-11-01T23:40:00.573Z,3.95
2023-11-01T23:45:28.556Z,4.43
2023-11-01T23:50:34.974Z,5.22
2023-11-01T23:55:40.179Z,6.55
